createdAt,value
2023-02-11T00:01:32.687Z,16.92
2023-02-11T00:04:01.971Z,16.65
2023-02-11T00:06:31.412Z,17.09
2023-02-11T00:09:01.343Z,16.90
2023-02-11T00:11:32.794Z,16.72
2023-02-11T00:14:02.902Z,17.07
2023-02-11T00:16:32.596Z,16.86
2023-02-11T00:19:01.180Z,16.51
2023-02-11T00:21:29.854Z,17.01
2023-02-11T00:24:00.224Z,16.99
2023-02-11T00:26:32.419Z,16.68
2023-02-11T00:29:01.659Z,16.99
2023-02-11T00:31:32.534Z,16.77
2023-02-11T00:34:00.588Z,17.01
2023-02-11T00:36:29.766Z,16.61
2023-02-11T00:38:58.516Z,16.97
2023-02-11T00:41:28.504Z,16.82
2023-02-11T00:43:56.440Z,16.87
2023-02-11T00:46:24.623Z,16.81
2023-02-11T00:48:55.221Z,16.43
2023-02-11T00:51:23.718Z,16.95
2023-02-11T00:53:51.572Z,16.43
2023-02-11T00:56:19.264Z,16.62
2023-02-11T00:58:47.506Z,16.91
2023-02-11T01:01:15.586Z,16.36
2023-02-11T01:03:44.016Z,16.96
2023-02-11T01:06:12.016Z,16.47
2023-02-11T01:08:40.224Z,16.63
2023-02-11T01:11:14.827Z,16.95
2023-02-11T01:13:46.897Z,16.88
2023-02-11T01:16:16.619Z,16.48
2023-02-11T01:18:46.385Z,16.83
2023-02-11T01:21:14.961Z,16.72
2023-02-11T01:23:44.336Z,16.72
2023-02-11T01:26:12.904Z,16.10
2023-02-11T01:28:40.835Z,16.72
2023-02-11T01:31:08.897Z,16.62
2023-02-11T01:33:36.817Z,16.79
2023-02-11T01:36:08.510Z,16.78
2023-02-11T01:38:36.758Z,16.39
2023-02-11T01:41:07.245Z,16.77
2023-02-11T01:43:42.174Z,16.57
2023-02-11T01:46:31.964Z,16.73
2023-02-11T01:49:06.391Z,16.65
2023-02-11T01:51:37.402Z,16.61
2023-02-11T01:54:27.285Z,16.54
2023-02-11T01:57:17.963Z,16.55
2023-02-11T01:59:57.410Z,16.58
2023-02-11T02:02:53.006Z,16.63
2023-02-11T02:05:43.370Z,16.64
2023-02-11T02:08:14.302Z,16.67
2023-02-11T02:10:45.250Z,16.46
2023-02-11T02:13:13.219Z,16.28
2023-02-11T02:15:55.267Z,16.70
2023-02-11T02:18:42.713Z,16.45
2023-02-11T02:21:31.771Z,16.62
2023-02-11T02:24:21.193Z,16.57
2023-02-11T02:27:01.254Z,16.57
2023-02-11T02:30:02.520Z,16.60
2023-02-11T02:32:39.442Z,16.57
2023-02-11T02:35:29.757Z,16.60
2023-02-11T02:38:00.429Z,16.62
2023-02-11T02:40:40.764Z,16.21
2023-02-11T02:43:10.539Z,16.58
2023-02-11T02:45:38.251Z,16.21
2023-02-11T02:48:07.394Z,16.49
2023-02-11T02:50:37.870Z,16.34
2023-02-11T02:53:31.387Z,16.49
2023-02-11T02:56:02.186Z,16.48
2023-02-11T02:58:38.951Z,16.48
2023-02-11T03:01:28.757Z,16.49
2023-02-11T03:04:21.832Z,16.51
2023-02-11T03:07:04.317Z,16.30
2023-02-11T03:09:55.300Z,16.42
2023-02-11T03:12:25.253Z,16.14
2023-02-11T03:14:53.156Z,16.39
2023-02-11T03:17:22.095Z,16.30
2023-02-11T03:19:51.296Z,16.18
2023-02-11T03:22:35.212Z,16.43
2023-02-11T03:25:03.696Z,16.16
2023-02-11T03:27:40.854Z,16.16
2023-02-11T03:30:18.562Z,16.42
2023-02-11T03:33:30.558Z,16.41
2023-02-11T03:36:09.112Z,16.13
2023-02-11T03:38:44.837Z,16.27
2023-02-11T03:41:16.496Z,16.33
2023-02-11T03:43:52.543Z,16.39
2023-02-11T03:46:26.136Z,16.45
2023-02-11T03:48:59.484Z,16.44
2023-02-11T03:51:30.519Z,16.44
2023-02-11T03:54:01.531Z,16.12
2023-02-11T03:56:33.375Z,16.29
2023-02-11T03:59:01.568Z,16.37
2023-02-11T04:01:29.609Z,16.38
2023-02-11T04:03:57.348Z,16.26
2023-02-11T04:06:25.463Z,16.38
2023-02-11T04:08:53.365Z,16.38
2023-02-11T04:11:21.229Z,16.13
2023-02-11T04:13:49.035Z,16.00
2023-02-11T04:16:16.853Z,16.22
2023-02-11T04:18:44.704Z,15.99
2023-02-11T04:21:12.629Z,16.31
2023-02-11T04:23:40.342Z,16.28
2023-02-11T04:26:08.265Z,16.04
2023-02-11T04:28:36.646Z,16.13
2023-02-11T04:31:04.772Z,15.96
2023-02-11T04:33:32.978Z,15.87
2023-02-11T04:36:00.831Z,15.96
2023-02-11T04:38:28.575Z,15.97
2023-02-11T04:40:58.309Z,16.34
2023-02-11T04:43:26.575Z,16.34
2023-02-11T04:45:58.784Z,16.35
2023-02-11T04:48:27.243Z,16.21
2023-02-11T04:50:55.267Z,16.29
2023-02-11T04:53:24.041Z,16.01
2023-02-11T04:55:53.092Z,16.42
2023-02-11T04:58:21.397Z,16.25
2023-02-11T05:00:49.092Z,16.40
2023-02-11T05:03:17.272Z,16.51
2023-02-11T05:05:45.097Z,16.55
2023-02-11T05:08:13.564Z,16.55
2023-02-11T05:10:45.828Z,16.51
2023-02-11T05:13:13.685Z,16.11
2023-02-11T05:15:41.816Z,16.29
2023-02-11T05:18:10.784Z,16.07
2023-02-11T05:20:39.593Z,16.16
2023-02-11T05:23:07.485Z,16.47
2023-02-11T05:25:35.535Z,15.71
2023-02-11T05:28:05.815Z,16.62
2023-02-11T05:30:34.091Z,16.62
2023-02-11T05:33:01.829Z,16.63
2023-02-11T05:35:29.612Z,16.37
2023-02-11T05:37:57.475Z,16.41
2023-02-11T05:40:25.122Z,16.15
2023-02-11T05:42:53.065Z,16.07
2023-02-11T05:45:20.815Z,16.39
2023-02-11T05:47:48.801Z,16.60
2023-02-11T05:50:16.670Z,16.40
2023-02-11T05:52:45.001Z,16.64
2023-02-11T05:55:12.792Z,16.48
2023-02-11T05:57:40.678Z,16.60
2023-02-11T06:00:09.512Z,16.17
2023-02-11T06:02:43.318Z,16.37
2023-02-11T06:05:10.996Z,16.20
2023-02-11T06:07:39.098Z,16.56
2023-02-11T06:10:07.664Z,16.51
2023-02-11T06:12:37.076Z,16.20
2023-02-11T06:15:06.471Z,16.27
2023-02-11T06:17:34.352Z,16.58
2023-02-11T06:20:03.260Z,16.62
2023-02-11T06:22:31.537Z,16.08
2023-02-11T06:25:02.112Z,16.25
2023-02-11T06:27:31.512Z,16.47
2023-02-11T06:29:59.965Z,16.60
2023-02-11T06:32:43.431Z,16.30
2023-02-11T06:35:12.693Z,15.96
2023-02-11T06:37:41.890Z,16.36
2023-02-11T06:40:11.848Z,16.58
2023-02-11T06:42:39.812Z,16.60
2023-02-11T06:45:10.894Z,16.57
2023-02-11T06:47:42.398Z,16.52
2023-02-11T06:50:14.037Z,16.02
2023-02-11T06:52:41.898Z,16.28
2023-02-11T06:55:09.978Z,16.11
2023-02-11T06:57:38.135Z,16.24
2023-02-11T07:00:06.836Z,16.46
2023-02-11T07:02:34.796Z,16.33
2023-02-11T07:05:02.764Z,16.37
2023-02-11T07:07:34.278Z,16.40
2023-02-11T07:10:04.185Z,16.16
2023-02-11T07:12:32.254Z,16.58
2023-02-11T07:15:00.345Z,16.28
2023-02-11T07:17:28.000Z,16.64
2023-02-11T07:19:56.038Z,16.70
2023-02-11T07:22:23.912Z,16.68
2023-02-11T07:24:51.746Z,16.61
2023-02-11T07:27:19.898Z,16.54
2023-02-11T07:29:48.840Z,16.17
2023-02-11T07:32:17.100Z,16.38
2023-02-11T07:34:45.605Z,16.44
2023-02-11T07:37:13.325Z,16.21
2023-02-11T07:39:43.777Z,16.46
2023-02-11T07:42:11.656Z,16.52
2023-02-11T07:44:39.694Z,16.67
2023-02-11T07:47:07.719Z,16.50
2023-02-11T07:49:35.473Z,16.15
2023-02-11T07:52:03.282Z,16.50
2023-02-11T07:54:30.929Z,16.73
2023-02-11T07:56:59.066Z,16.45
2023-02-11T07:59:27.597Z,16.66
2023-02-11T08:01:55.487Z,16.33
2023-02-11T08:04:23.656Z,16.17
2023-02-11T08:06:52.928Z,16.17
2023-02-11T08:09:20.728Z,16.28
2023-02-11T08:11:48.348Z,16.44
2023-02-11T08:14:16.187Z,16.69
2023-02-11T08:16:44.442Z,16.80
2023-02-11T08:19:15.784Z,16.54
2023-02-11T08:21:44.294Z,16.74
2023-02-11T08:24:12.526Z,16.87
2023-02-11T08:26:40.552Z,16.40
2023-02-11T08:29:11.705Z,16.87
2023-02-11T08:31:42.665Z,16.60
2023-02-11T08:34:11.786Z,16.90
2023-02-11T08:36:42.294Z,16.69
2023-02-11T08:39:19.683Z,16.97
2023-02-11T08:41:57.279Z,17.03
2023-02-11T08:44:25.593Z,17.07
2023-02-11T08:46:54.037Z,17.13
2023-02-11T08:49:22.307Z,17.00
2023-02-11T08:51:51.086Z,17.24
2023-02-11T08:54:19.780Z,17.31
2023-02-11T08:56:51.633Z,17.33
2023-02-11T08:59:19.379Z,17.34
2023-02-11T09:01:48.035Z,17.06
2023-02-11T09:04:15.911Z,17.43
2023-02-11T09:06:44.010Z,17.18
2023-02-11T09:09:14.607Z,17.46
2023-02-11T09:11:44.151Z,17.46
2023-02-11T09:14:19.785Z,17.45
2023-02-11T09:16:48.500Z,17.44
2023-02-11T09:19:17.295Z,17.36
2023-02-11T09:21:45.127Z,17.41
2023-02-11T09:24:13.087Z,17.50
2023-02-11T09:26:43.438Z,17.46
2023-02-11T09:29:11.781Z,17.62
2023-02-11T09:31:39.981Z,17.67
2023-02-11T09:34:07.911Z,17.66
2023-02-11T09:36:43.529Z,17.61
2023-02-11T09:39:18.030Z,17.63
2023-02-11T09:42:10.121Z,17.68
2023-02-11T09:44:39.712Z,17.78
2023-02-11T09:47:13.514Z,17.93
2023-02-11T09:49:46.816Z,18.00
2023-02-11T09:52:40.260Z,17.31
2023-02-11T09:55:39.973Z,18.05
2023-02-11T09:58:22.935Z,17.99
2023-02-11T10:01:28.296Z,18.08
2023-02-11T10:04:14.152Z,17.70
2023-02-11T10:07:19.435Z,18.23
2023-02-11T10:10:00.536Z,18.51
2023-02-11T10:12:28.122Z,18.72
2023-02-11T10:15:02.074Z,18.87
2023-02-11T10:17:46.491Z,18.89
2023-02-11T10:20:31.348Z,18.79
2023-02-11T10:23:02.473Z,18.45
2023-02-11T10:25:45.456Z,18.32
2023-02-11T10:28:20.103Z,18.43
2023-02-11T10:31:16.032Z,18.36
2023-02-11T10:33:58.671Z,18.50
2023-02-11T10:36:34.250Z,18.45
2023-02-11T10:39:11.920Z,17.91
2023-02-11T10:41:45.937Z,18.46
2023-02-11T10:44:27.316Z,18.57
2023-02-11T10:46:56.620Z,18.53
2023-02-11T10:49:41.656Z,18.38
2023-02-11T10:52:21.672Z,18.45
2023-02-11T10:55:14.557Z,18.43
2023-02-11T10:57:50.146Z,18.25
2023-02-11T11:00:17.923Z,18.37
2023-02-11T11:02:52.541Z,18.35
2023-02-11T11:05:28.854Z,17.94
2023-02-11T11:08:03.052Z,18.10
2023-02-11T11:10:43.476Z,18.31
2023-02-11T11:13:23.630Z,18.34
2023-02-11T11:16:10.312Z,18.35
2023-02-11T11:18:39.294Z,17.94
2023-02-11T11:21:16.383Z,17.75
2023-02-11T11:24:02.674Z,18.34
2023-02-11T11:26:42.640Z,18.28
2023-02-11T11:29:21.956Z,18.15
2023-02-11T11:31:54.006Z,18.37
2023-02-11T11:34:38.880Z,18.32
2023-02-11T11:37:28.138Z,18.27
2023-02-11T11:40:04.972Z,18.35
2023-02-11T11:42:35.652Z,18.38
2023-02-11T11:45:24.850Z,17.95
2023-02-11T11:48:34.585Z,18.11
2023-02-11T11:51:06.350Z,17.84
2023-02-11T11:54:01.844Z,18.35
2023-02-11T11:56:34.141Z,18.29
2023-02-11T11:59:11.022Z,18.25
2023-02-11T12:01:50.141Z,17.86
2023-02-11T12:04:49.150Z,17.80
2023-02-11T12:07:29.755Z,18.17
2023-02-11T12:10:16.575Z,18.17
2023-02-11T12:12:53.552Z,18.17
2023-02-11T12:15:24.115Z,18.17
2023-02-11T12:20:15.282Z,18.12
2023-02-11T12:22:55.120Z,18.11
2023-02-11T12:25:28.390Z,18.11
2023-02-11T12:28:20.480Z,18.11
2023-02-11T12:31:15.784Z,18.11
2023-02-11T12:34:02.221Z,18.14
2023-02-11T12:36:41.223Z,18.13
2023-02-11T12:39:38.441Z,18.01
2023-02-11T12:42:41.167Z,18.09
2023-02-11T12:45:12.184Z,18.04
2023-02-11T12:48:17.533Z,18.06
2023-02-11T12:51:03.991Z,18.02
2023-02-11T12:54:09.536Z,17.99
2023-02-11T12:56:40.423Z,17.97
2023-02-11T12:59:17.883Z,18.02
2023-02-11T13:01:47.971Z,18.03
2023-02-11T13:04:25.143Z,18.06
2023-02-11T13:06:59.194Z,17.63
2023-02-11T13:09:38.756Z,17.83
2023-02-11T13:12:26.445Z,17.93
2023-02-11T13:15:00.534Z,17.96
2023-02-11T13:17:39.096Z,17.53
2023-02-11T13:20:37.196Z,18.13
2023-02-11T13:23:29.974Z,17.94
2023-02-11T13:26:17.032Z,17.95
2023-02-11T13:29:17.208Z,18.14
2023-02-11T13:31:57.558Z,18.04
2023-02-11T13:34:45.762Z,17.97
2023-02-11T13:37:29.939Z,18.19
2023-02-11T13:39:58.037Z,18.20
2023-02-11T13:42:27.306Z,17.51
2023-02-11T13:44:56.621Z,17.96
2023-02-11T13:47:37.455Z,18.24
2023-02-11T13:50:10.830Z,18.25
2023-02-11T13:52:39.789Z,18.23
2023-02-11T13:55:24.457Z,17.89
2023-02-11T13:58:14.118Z,18.27
2023-02-11T14:00:51.496Z,18.27
2023-02-11T14:03:57.930Z,18.01
2023-02-11T14:06:47.361Z,18.28
2023-02-11T14:09:17.494Z,18.26
2023-02-11T14:11:52.698Z,18.26
2023-02-11T14:14:31.490Z,18.15
2023-02-11T14:17:00.927Z,18.25
2023-02-11T14:19:39.214Z,18.26
2023-02-11T14:22:20.197Z,17.86
2023-02-11T14:24:55.059Z,18.11
2023-02-11T14:27:23.718Z,18.32
2023-02-11T14:30:01.845Z,18.28
2023-02-11T14:32:50.340Z,18.20
2023-02-11T14:35:38.071Z,18.31
2023-02-11T14:38:23.251Z,18.30
2023-02-11T14:41:09.815Z,18.34
2023-02-11T14:43:47.540Z,18.26
2023-02-11T14:46:23.219Z,18.37
2023-02-11T14:48:55.460Z,18.34
2023-02-11T14:51:31.442Z,18.13
2023-02-11T14:54:04.990Z,18.33
2023-02-11T14:56:34.746Z,18.01
2023-02-11T14:59:03.810Z,18.02
2023-02-11T15:01:32.752Z,18.13
2023-02-11T15:04:07.671Z,18.04
2023-02-11T15:06:42.477Z,18.01
2023-02-11T15:09:18.807Z,18.14
2023-02-11T15:11:51.738Z,17.50
2023-02-11T15:14:35.734Z,18.26
2023-02-11T15:17:09.226Z,17.85
2023-02-11T15:19:41.883Z,18.15
2023-02-11T15:22:20.398Z,18.24
2023-02-11T15:25:11.652Z,18.23
2023-02-11T15:27:45.173Z,18.24
2023-02-11T15:30:24.002Z,18.21
2023-02-11T15:33:01.098Z,17.40
2023-02-11T15:35:32.780Z,18.15
2023-02-11T15:38:01.719Z,18.04
2023-02-11T15:40:35.329Z,17.64
2023-02-11T15:43:10.132Z,18.20
2023-02-11T15:45:55.253Z,18.21
2023-02-11T15:48:27.220Z,18.04
2023-02-11T15:50:59.491Z,18.16
2023-02-11T15:53:37.678Z,18.20
2023-02-11T15:56:30.689Z,18.35
2023-02-11T15:59:01.397Z,17.95
2023-02-11T16:01:38.163Z,18.29
2023-02-11T16:04:06.652Z,18.35
2023-02-11T16:06:47.652Z,18.36
2023-02-11T16:09:15.694Z,18.36
2023-02-11T16:11:46.716Z,18.33
2023-02-11T16:14:29.596Z,17.78
2023-02-11T16:17:02.766Z,17.78
2023-02-11T16:19:33.547Z,18.31
2023-02-11T16:22:08.471Z,18.29
2023-02-11T16:24:38.948Z,17.42
2023-02-11T16:27:18.309Z,18.28
2023-02-11T16:29:48.850Z,18.30
2023-02-11T16:32:18.470Z,18.29
2023-02-11T16:34:47.133Z,18.27
2023-02-11T16:37:15.203Z,18.30
2023-02-11T16:39:43.539Z,18.32
2023-02-11T16:42:12.583Z,17.89
2023-02-11T16:44:40.664Z,17.88
2023-02-11T16:47:23.748Z,17.95
2023-02-11T16:49:52.008Z,17.98
2023-02-11T16:52:22.817Z,18.05
2023-02-11T16:54:51.192Z,17.91
2023-02-11T16:57:22.298Z,18.22
2023-02-11T16:59:50.785Z,18.16
2023-02-11T17:02:30.652Z,18.23
2023-02-11T17:05:01.297Z,18.07
2023-02-11T17:07:29.865Z,18.03
2023-02-11T17:09:58.987Z,17.69
2023-02-11T17:12:27.128Z,18.06
2023-02-11T17:14:59.225Z,18.11
2023-02-11T17:17:26.989Z,18.13
2023-02-11T17:19:56.146Z,18.09
2023-02-11T17:22:23.978Z,18.15
2023-02-11T17:24:51.830Z,18.01
2023-02-11T17:27:20.335Z,17.95
2023-02-11T17:29:48.159Z,18.07
2023-02-11T17:32:16.074Z,17.68
2023-02-11T17:34:44.048Z,17.61
2023-02-11T17:37:11.976Z,17.66
2023-02-11T17:39:42.737Z,17.82
2023-02-11T17:42:11.995Z,17.06
2023-02-11T17:44:39.767Z,17.74
2023-02-11T17:47:08.073Z,18.17
2023-02-11T17:49:36.445Z,18.13
2023-02-11T17:52:04.509Z,18.01
2023-02-11T17:54:34.539Z,16.72
2023-02-11T17:57:02.995Z,16.63
2023-02-11T17:59:35.617Z,17.88
2023-02-11T18:02:04.572Z,17.97
2023-02-11T18:04:33.028Z,16.89
2023-02-11T18:07:00.986Z,16.78
2023-02-11T18:09:28.876Z,17.18
2023-02-11T18:11:58.518Z,15.86
2023-02-11T18:14:26.760Z,16.90
2023-02-11T18:16:55.065Z,17.86
2023-02-11T18:19:23.209Z,16.35
2023-02-11T18:21:51.673Z,16.78
2023-02-11T18:24:19.546Z,16.96
2023-02-11T18:26:47.510Z,17.47
2023-02-11T18:29:15.476Z,17.13
2023-02-11T18:31:43.547Z,17.75
2023-02-11T18:34:12.234Z,17.68
2023-02-11T18:36:40.107Z,17.06
2023-02-11T18:39:07.960Z,17.48
2023-02-11T18:41:36.044Z,17.78
2023-02-11T18:44:05.194Z,17.76
2023-02-11T18:46:33.185Z,17.37
2023-02-11T18:49:01.437Z,17.76
2023-02-11T18:51:31.980Z,16.99
2023-02-11T18:54:00.035Z,17.88
2023-02-11T18:56:28.188Z,17.80
2023-02-11T18:58:57.333Z,16.70
2023-02-11T19:01:27.596Z,17.22
2023-02-11T19:03:57.789Z,17.85
2023-02-11T19:06:28.210Z,16.50
2023-02-11T19:08:59.973Z,17.63
2023-02-11T19:11:48.909Z,17.80
2023-02-11T19:14:20.196Z,17.82
2023-02-11T19:16:50.769Z,16.51
2023-02-11T19:19:19.303Z,17.87
2023-02-11T19:21:47.704Z,17.20
2023-02-11T19:24:19.010Z,17.69
2023-02-11T19:26:48.126Z,17.59
2023-02-11T19:29:16.742Z,17.14
2023-02-11T19:31:45.042Z,17.71
2023-02-11T19:34:16.344Z,16.59
2023-02-11T19:36:44.417Z,16.82
2023-02-11T19:39:13.022Z,16.91
2023-02-11T19:41:41.030Z,16.71
2023-02-11T19:44:09.745Z,17.17
2023-02-11T19:46:41.117Z,17.62
2023-02-11T19:49:11.289Z,17.87
2023-02-11T19:51:39.723Z,16.95
2023-02-11T19:54:08.062Z,17.18
2023-02-11T19:56:38.054Z,17.94
2023-02-11T19:59:08.927Z,17.27
2023-02-11T20:01:37.283Z,17.35
2023-02-11T20:04:05.407Z,17.63
2023-02-11T20:06:34.590Z,17.94
2023-02-11T20:09:06.892Z,17.21
2023-02-11T20:11:37.503Z,17.87
2023-02-11T20:14:06.938Z,17.87
2023-02-11T20:16:47.379Z,16.93
2023-02-11T20:19:22.215Z,17.71
2023-02-11T20:21:53.827Z,17.84
2023-02-11T20:24:23.769Z,17.15
2023-02-11T20:26:56.069Z,18.02
2023-02-11T20:29:25.848Z,18.16
2023-02-11T20:31:54.419Z,18.14
2023-02-11T20:34:22.586Z,16.86
2023-02-11T20:36:53.676Z,17.62
2023-02-11T20:39:23.955Z,17.40
2023-02-11T20:41:54.255Z,17.23
2023-02-11T20:44:23.567Z,18.10
2023-02-11T20:46:54.590Z,18.07
2023-02-11T20:49:25.031Z,17.21
2023-02-11T20:51:54.095Z,17.99
2023-02-11T20:54:23.955Z,18.02
2023-02-11T20:56:53.866Z,17.98
2023-02-11T20:59:22.271Z,17.98
2023-02-11T21:01:55.732Z,17.43
2023-02-11T21:04:26.720Z,17.56
2023-02-11T21:06:57.997Z,18.04
2023-02-11T21:09:29.075Z,18.05
2023-02-11T21:11:57.431Z,18.09
2023-02-11T21:14:26.332Z,17.01
2023-02-11T21:16:54.293Z,17.89
2023-02-11T21:19:22.088Z,17.37
2023-02-11T21:21:50.161Z,17.84
2023-02-11T21:24:18.391Z,17.88
2023-02-11T21:26:46.464Z,16.98
2023-02-11T21:29:14.548Z,17.99
2023-02-11T21:31:42.879Z,17.41
2023-02-11T21:34:10.999Z,17.28
2023-02-11T21:36:38.759Z,16.98
2023-02-11T21:39:07.153Z,17.26
2023-02-11T21:41:35.397Z,17.90
2023-02-11T21:44:03.250Z,17.08
2023-02-11T21:46:32.139Z,17.80
2023-02-11T21:49:00.627Z,17.11
2023-02-11T21:51:28.889Z,17.27
2023-02-11T21:54:03.047Z,17.08
2023-02-11T21:56:32.380Z,17.60
2023-02-11T21:59:01.126Z,17.55
2023-02-11T22:01:31.935Z,16.97
2023-02-11T22:04:00.344Z,17.32
2023-02-11T22:06:31.357Z,17.39
2023-02-11T22:09:02.520Z,16.77
2023-02-11T22:11:30.465Z,17.37
2023-02-11T22:13:59.271Z,16.80
2023-02-11T22:16:28.673Z,17.21
2023-02-11T22:18:59.278Z,17.10
2023-02-11T22:21:29.671Z,17.30
2023-02-11T22:23:57.563Z,15.87
2023-02-11T22:26:27.943Z,15.53
2023-02-11T22:28:56.543Z,16.41
2023-02-11T22:31:28.481Z,16.69
2023-02-11T22:33:56.479Z,16.58
2023-02-11T22:36:29.755Z,15.68
2023-02-11T22:39:01.930Z,16.63
2023-02-11T22:41:30.246Z,16.48
2023-02-11T22:43:58.374Z,17.19
2023-02-11T22:46:27.014Z,17.19
2023-02-11T22:48:55.090Z,16.90
2023-02-11T22:51:26.370Z,16.61
2023-02-11T22:54:05.644Z,16.79
2023-02-11T22:56:35.167Z,16.85
2023-02-11T22:59:06.243Z,16.59
2023-02-11T23:01:34.459Z,17.18
2023-02-11T23:04:04.590Z,16.14
2023-02-11T23:06:33.241Z,16.04
2023-02-11T23:09:02.869Z,16.55
2023-02-11T23:11:31.716Z,17.17
2023-02-11T23:14:00.737Z,15.92
2023-02-11T23:16:31.663Z,16.40
2023-02-11T23:19:01.862Z,17.18
2023-02-11T23:21:31.385Z,17.17
2023-02-11T23:24:14.449Z,16.52
2023-02-11T23:26:43.530Z,16.12
2023-02-11T23:29:11.672Z,17.15
2023-02-11T23:31:43.533Z,15.60
2023-02-11T23:34:11.998Z,17.13
2023-02-11T23:36:39.762Z,16.89
2023-02-11T23:39:07.662Z,16.94
2023-02-11T23:41:35.687Z,16.04
2023-02-11T23:44:03.649Z,16.42
2023-02-11T23:46:31.494Z,16.35
2023-02-11T23:48:59.421Z,17.03
2023-02-11T23:51:27.238Z,16.54
2023-02-11T23:53:56.303Z,16.83
2023-02-11T23:56:27.666Z,16.90
2023-02-11T23:58:59.061Z,16.24
